sensor_id;sensor_type;location;lat;lon;timestamp;pressure;altitude;pressure_sealevel;temperature;humidity
55675;BME280;41562;44.330;23.802;2023-02-21T00:00:07;100372.88;;;7.06;77.59
55675;BME280;41562;44.330;23.802;2023-02-21T00:02:34;100368.66;;;7.10;76.83
55675;BME280;41562;44.330;23.802;2023-02-21T00:05:02;100368.72;;;7.15;77.14
55675;BME280;41562;44.330;23.802;2023-02-21T00:07:29;100361.59;;;7.37;76.42
55675;BME280;41562;44.330;23.802;2023-02-21T00:09:57;100360.09;;;7.46;75.41
55675;BME280;41562;44.330;23.802;2023-02-21T00:12:24;100348.16;;;7.49;75.34
55675;BME280;41562;44.330;23.802;2023-02-21T00:14:51;100343.28;;;7.41;75.03
55675;BME280;41562;44.330;23.802;2023-02-21T00:17:18;100345.00;;;7.74;75.30
55675;BME280;41562;44.330;23.802;2023-02-21T00:19:46;100341.91;;;7.82;74.09
55675;BME280;41562;44.330;23.802;2023-02-21T00:22:13;100333.41;;;7.58;74.58
55675;BME280;41562;44.330;23.802;2023-02-21T00:24:40;100336.91;;;7.63;74.65
55675;BME280;41562;44.330;23.802;2023-02-21T00:27:08;100326.97;;;7.81;74.88
55675;BME280;41562;44.330;23.802;2023-02-21T00:29:35;100331.13;;;7.72;74.61
55675;BME280;41562;44.330;23.802;2023-02-21T00:32:03;100333.69;;;7.61;74.69
55675;BME280;41562;44.330;23.802;2023-02-21T00:34:30;100324.47;;;7.47;75.47
55675;BME280;41562;44.330;23.802;2023-02-21T00:36:57;100327.59;;;7.39;75.93
55675;BME280;41562;44.330;23.802;2023-02-21T00:39:25;100320.38;;;7.61;74.81
55675;BME280;41562;44.330;23.802;2023-02-21T00:41:52;100306.84;;;7.41;75.53
55675;BME280;41562;44.330;23.802;2023-02-21T00:44:19;100307.78;;;7.30;76.12
55675;BME280;41562;44.330;23.802;2023-02-21T00:46:46;100303.66;;;7.39;77.04
55675;BME280;41562;44.330;23.802;2023-02-21T00:49:14;100296.72;;;7.38;76.02
55675;BME280;41562;44.330;23.802;2023-02-21T00:51:41;100288.16;;;7.36;76.23
55675;BME280;41562;44.330;23.802;2023-02-21T00:54:08;100293.06;;;7.44;75.76
55675;BME280;41562;44.330;23.802;2023-02-21T00:56:35;100281.53;;;7.60;75.69
55675;BME280;41562;44.330;23.802;2023-02-21T00:59:03;100270.88;;;7.60;74.80
55675;BME280;41562;44.330;23.802;2023-02-21T01:01:31;100255.19;;;7.37;75.48
55675;BME280;41562;44.330;23.802;2023-02-21T01:04:01;100259.09;;;7.30;75.58
55675;BME280;41562;44.330;23.802;2023-02-21T01:06:28;100251.25;;;7.40;79.79
55675;BME280;41562;44.330;23.802;2023-02-21T01:08:56;100242.50;;;7.44;75.80
55675;BME280;41562;44.330;23.802;2023-02-21T01:11:23;100245.66;;;7.41;75.45
55675;BME280;41562;44.330;23.802;2023-02-21T01:13:50;100243.47;;;7.33;75.40
55675;BME280;41562;44.330;23.802;2023-02-21T01:16:17;100239.06;;;7.44;75.44
55675;BME280;41562;44.330;23.802;2023-02-21T01:18:45;100238.84;;;7.50;75.32
55675;BME280;41562;44.330;23.802;2023-02-21T01:21:13;100237.00;;;7.51;74.64
55675;BME280;41562;44.330;23.802;2023-02-21T01:23:41;100242.56;;;7.49;74.87
55675;BME280;41562;44.330;23.802;2023-02-21T01:26:09;100227.69;;;7.53;74.72
55675;BME280;41562;44.330;23.802;2023-02-21T01:28:36;100229.16;;;7.39;75.44
55675;BME280;41562;44.330;23.802;2023-02-21T01:31:03;100220.56;;;7.32;75.92
55675;BME280;41562;44.330;23.802;2023-02-21T01:33:39;100216.53;;;7.51;75.26
55675;BME280;41562;44.330;23.802;2023-02-21T01:36:07;100228.22;;;7.50;76.83
55675;BME280;41562;44.330;23.802;2023-02-21T01:38:35;100212.53;;;7.54;75.37
55675;BME280;41562;44.330;23.802;2023-02-21T01:41:03;100212.91;;;7.62;74.75
55675;BME280;41562;44.330;23.802;2023-02-21T01:43:30;100214.38;;;7.80;73.66
55675;BME280;41562;44.330;23.802;2023-02-21T01:45:58;100200.94;;;7.97;75.35
55675;BME280;41562;44.330;23.802;2023-02-21T01:48:27;100208.44;;;8.00;74.20
55675;BME280;41562;44.330;23.802;2023-02-21T01:50:56;100212.19;;;8.04;73.25
55675;BME280;41562;44.330;23.802;2023-02-21T01:53:25;100210.66;;;8.13;73.06
55675;BME280;41562;44.330;23.802;2023-02-21T01:55:55;100201.44;;;8.26;76.53
55675;BME280;41562;44.330;23.802;2023-02-21T01:58:25;100209.28;;;8.42;72.89
55675;BME280;41562;44.330;23.802;2023-02-21T02:00:52;100203.50;;;8.56;71.38
55675;BME280;41562;44.330;23.802;2023-02-21T02:03:20;100194.09;;;8.43;71.92
55675;BME280;41562;44.330;23.802;2023-02-21T02:05:50;100197.38;;;8.55;75.46
55675;BME280;41562;44.330;23.802;2023-02-21T02:08:20;100184.94;;;8.76;70.91
55675;BME280;41562;44.330;23.802;2023-02-21T02:10:52;100183.31;;;8.65;71.22
55675;BME280;41562;44.330;23.802;2023-02-21T02:35:54;100145.84;;;8.97;69.81
55675;BME280;41562;44.330;23.802;2023-02-21T02:38:37;100137.56;;;8.98;70.09
55675;BME280;41562;44.330;23.802;2023-02-21T02:41:25;100145.53;;;8.88;70.02
55675;BME280;41562;44.330;23.802;2023-02-21T02:44:21;100144.47;;;8.84;69.69
55675;BME280;41562;44.330;23.802;2023-02-21T02:47:05;100136.03;;;9.38;76.42
55675;BME280;41562;44.330;23.802;2023-02-21T02:49:37;100136.03;;;9.27;68.28
55675;BME280;41562;44.330;23.802;2023-02-21T02:52:08;100135.53;;;9.36;67.79
55675;BME280;41562;44.330;23.802;2023-02-21T02:54:37;100128.56;;;9.50;67.11
55675;BME280;41562;44.330;23.802;2023-02-21T02:57:06;100130.72;;;9.83;73.86
55675;BME280;41562;44.330;23.802;2023-02-21T02:59:37;100120.31;;;9.72;66.16
55675;BME280;41562;44.330;23.802;2023-02-21T03:13:34;100109.88;;;9.75;65.77
55675;BME280;41562;44.330;23.802;2023-02-21T03:16:18;100110.97;;;9.69;72.25
55675;BME280;41562;44.330;23.802;2023-02-21T03:18:54;100105.09;;;9.62;66.53
55675;BME280;41562;44.330;23.802;2023-02-21T03:21:30;100102.41;;;9.62;66.33
55675;BME280;41562;44.330;23.802;2023-02-21T03:24:10;100100.84;;;9.66;66.01
55675;BME280;41562;44.330;23.802;2023-02-21T03:26:41;100089.59;;;9.84;69.47
55675;BME280;41562;44.330;23.802;2023-02-21T03:29:10;100091.19;;;9.80;65.24
55675;BME280;41562;44.330;23.802;2023-02-21T03:31:47;100094.41;;;9.72;65.21
55675;BME280;41562;44.330;23.802;2023-02-21T03:34:16;100069.84;;;9.75;65.38
55675;BME280;41562;44.330;23.802;2023-02-21T03:36:43;100081.81;;;9.93;68.14
55675;BME280;41562;44.330;23.802;2023-02-21T03:39:18;100074.38;;;9.85;64.80
55675;BME280;41562;44.330;23.802;2023-02-21T03:41:45;100079.97;;;9.83;64.78
55675;BME280;41562;44.330;23.802;2023-02-21T03:44:12;100086.66;;;9.86;64.63
55675;BME280;41562;44.330;23.802;2023-02-21T03:46:39;100073.53;;;10.04;71.53
55675;BME280;41562;44.330;23.802;2023-02-21T03:49:07;100075.41;;;9.94;64.60
55675;BME280;41562;44.330;23.802;2023-02-21T03:51:34;100076.50;;;9.98;63.87
55675;BME280;41562;44.330;23.802;2023-02-21T03:54:01;100070.31;;;10.07;63.86
55675;BME280;41562;44.330;23.802;2023-02-21T03:56:29;100066.81;;;10.27;70.37
55675;BME280;41562;44.330;23.802;2023-02-21T03:59:09;100052.69;;;10.17;63.82
55675;BME280;41562;44.330;23.802;2023-02-21T04:01:36;100058.56;;;10.03;63.79
55675;BME280;41562;44.330;23.802;2023-02-21T04:04:03;100059.09;;;10.00;63.66
55675;BME280;41562;44.330;23.802;2023-02-21T04:06:33;100055.66;;;10.05;64.12
55675;BME280;41562;44.330;23.802;2023-02-21T04:09:01;100056.69;;;10.19;63.33
55675;BME280;41562;44.330;23.802;2023-02-21T04:11:29;100061.22;;;10.14;62.97
55675;BME280;41562;44.330;23.802;2023-02-21T04:13:57;100056.94;;;10.23;62.37
55675;BME280;41562;44.330;23.802;2023-02-21T04:16:30;100050.44;;;10.39;71.31
55675;BME280;41562;44.330;23.802;2023-02-21T04:18:57;100049.47;;;10.20;63.37
55675;BME280;41562;44.330;23.802;2023-02-21T04:21:25;100052.16;;;10.09;62.94
55675;BME280;41562;44.330;23.802;2023-02-21T04:23:52;100050.78;;;10.12;62.92
55675;BME280;41562;44.330;23.802;2023-02-21T04:26:19;100048.41;;;10.11;63.64
55675;BME280;41562;44.330;23.802;2023-02-21T04:28:47;100046.22;;;10.33;62.25
55675;BME280;41562;44.330;23.802;2023-02-21T04:31:16;100053.19;;;10.14;62.61
55675;BME280;41562;44.330;23.802;2023-02-21T04:33:44;100053.50;;;10.02;63.41
55675;BME280;41562;44.330;23.802;2023-02-21T04:36:11;100061.56;;;11.44;66.02
55675;BME280;41562;44.330;23.802;2023-02-21T04:38:39;100060.56;;;11.69;58.50
55675;BME280;41562;44.330;23.802;2023-02-21T04:41:06;100060.25;;;11.03;59.52
55675;BME280;41562;44.330;23.802;2023-02-21T04:43:33;100065.81;;;10.72;61.02
55675;BME280;41562;44.330;23.802;2023-02-21T04:46:01;100060.88;;;10.40;62.29
55675;BME280;41562;44.330;23.802;2023-02-21T04:48:28;100069.13;;;10.44;62.33
55675;BME280;41562;44.330;23.802;2023-02-21T04:51:00;100068.69;;;10.27;62.93
55675;BME280;41562;44.330;23.802;2023-02-21T04:53:47;100074.06;;;10.12;64.18
55675;BME280;41562;44.330;23.802;2023-02-21T04:56:18;100081.56;;;9.94;64.87
55675;BME280;41562;44.330;23.802;2023-02-21T04:58:46;100073.03;;;9.82;65.21
55675;BME280;41562;44.330;23.802;2023-02-21T05:01:15;100065.59;;;9.64;65.77
55675;BME280;41562;44.330;23.802;2023-02-21T05:03:44;100071.75;;;9.59;65.48
55675;BME280;41562;44.330;23.802;2023-02-21T05:06:20;100069.88;;;9.40;66.23
55675;BME280;41562;44.330;23.802;2023-02-21T05:08:48;100070.94;;;9.39;66.06
55675;BME280;41562;44.330;23.802;2023-02-21T05:11:17;100066.66;;;9.38;66.74
55675;BME280;41562;44.330;23.802;2023-02-21T05:13:46;100061.88;;;9.45;68.71
55675;BME280;41562;44.330;23.802;2023-02-21T05:16:14;100057.06;;;9.52;66.42
55675;BME280;41562;44.330;23.802;2023-02-21T05:18:54;100070.41;;;9.57;70.28
55675;BME280;41562;44.330;23.802;2023-02-21T05:21:28;100059.19;;;9.60;67.63
55675;BME280;41562;44.330;23.802;2023-02-21T05:23:56;100055.97;;;9.73;66.01
55675;BME280;41562;44.330;23.802;2023-02-21T05:26:26;100056.25;;;9.72;65.60
55675;BME280;41562;44.330;23.802;2023-02-21T05:28:53;100049.78;;;9.88;69.48
55675;BME280;41562;44.330;23.802;2023-02-21T05:31:20;100061.31;;;9.78;65.63
55675;BME280;41562;44.330;23.802;2023-02-21T05:33:48;100063.44;;;9.86;64.32
55675;BME280;41562;44.330;23.802;2023-02-21T05:36:15;100059.13;;;9.80;65.45
55675;BME280;41562;44.330;23.802;2023-02-21T05:38:44;100059.38;;;10.04;67.90
55675;BME280;41562;44.330;23.802;2023-02-21T05:41:12;100068.19;;;9.99;64.29
55675;BME280;41562;44.330;23.802;2023-02-21T05:43:42;100067.84;;;10.31;62.89
55675;BME280;41562;44.330;23.802;2023-02-21T05:46:23;100067.84;;;10.91;60.94
55675;BME280;41562;44.330;23.802;2023-02-21T05:48:51;100066.66;;;11.07;64.55
55675;BME280;41562;44.330;23.802;2023-02-21T05:51:19;100071.50;;;10.61;61.11
55675;BME280;41562;44.330;23.802;2023-02-21T05:53:47;100072.28;;;10.61;61.59
55675;BME280;41562;44.330;23.802;2023-02-21T05:56:15;100080.31;;;10.56;67.50
55675;BME280;41562;44.330;23.802;2023-02-21T05:58:43;100077.81;;;10.75;63.66
55675;BME280;41562;44.330;23.802;2023-02-21T06:01:10;100075.28;;;10.44;62.11
55675;BME280;41562;44.330;23.802;2023-02-21T06:03:38;100077.22;;;10.29;62.82
55675;BME280;41562;44.330;23.802;2023-02-21T06:06:05;100084.13;;;10.40;68.64
55675;BME280;41562;44.330;23.802;2023-02-21T06:08:46;100087.03;;;10.43;68.44
55675;BME280;41562;44.330;23.802;2023-02-21T06:11:25;100090.00;;;10.47;62.44
55675;BME280;41562;44.330;23.802;2023-02-21T06:13:55;100087.03;;;10.43;62.42
55675;BME280;41562;44.330;23.802;2023-02-21T06:16:23;100078.25;;;10.43;62.27
55675;BME280;41562;44.330;23.802;2023-02-21T06:18:58;100078.94;;;10.64;62.17
55675;BME280;41562;44.330;23.802;2023-02-21T06:21:37;100078.25;;;10.43;62.84
55675;BME280;41562;44.330;23.802;2023-02-21T06:24:05;100082.19;;;10.61;61.63
55675;BME280;41562;44.330;23.802;2023-02-21T06:26:32;100067.44;;;10.63;61.23
55675;BME280;41562;44.330;23.802;2023-02-21T06:29:00;100067.94;;;10.70;64.00
55675;BME280;41562;44.330;23.802;2023-02-21T06:31:27;100074.66;;;10.63;62.18
55675;BME280;41562;44.330;23.802;2023-02-21T06:33:54;100063.19;;;10.57;62.27
55675;BME280;41562;44.330;23.802;2023-02-21T06:36:25;100074.84;;;10.81;61.49
55675;BME280;41562;44.330;23.802;2023-02-21T06:38:55;100061.88;;;11.04;69.51
55675;BME280;41562;44.330;23.802;2023-02-21T06:41:26;100061.88;;;11.04;60.82
55675;BME280;41562;44.330;23.802;2023-02-21T06:44:05;100060.53;;;11.06;60.42
55675;BME280;41562;44.330;23.802;2023-02-21T06:46:38;100058.13;;;11.05;61.04
55675;BME280;41562;44.330;23.802;2023-02-21T06:49:06;100055.31;;;11.25;60.15
55675;BME280;41562;44.330;23.802;2023-02-21T06:51:38;100053.00;;;11.42;59.56
55675;BME280;41562;44.330;23.802;2023-02-21T06:54:06;100048.31;;;11.29;59.80
55675;BME280;41562;44.330;23.802;2023-02-21T06:56:34;100058.84;;;11.49;61.72
55675;BME280;41562;44.330;23.802;2023-02-21T06:59:01;100057.66;;;11.94;62.93
55675;BME280;41562;44.330;23.802;2023-02-21T07:01:29;100055.06;;;12.08;57.17
55675;BME280;41562;44.330;23.802;2023-02-21T07:03:57;100061.34;;;12.22;56.80
55675;BME280;41562;44.330;23.802;2023-02-21T07:06:25;100051.34;;;12.28;56.69
55675;BME280;41562;44.330;23.802;2023-02-21T07:08:56;100053.28;;;12.65;55.66
55675;BME280;41562;44.330;23.802;2023-02-21T07:11:23;100040.31;;;12.90;54.37
55675;BME280;41562;44.330;23.802;2023-02-21T07:13:51;100050.13;;;13.00;53.90
55675;BME280;41562;44.330;23.802;2023-02-21T07:16:21;100047.88;;;13.26;53.15
55675;BME280;41562;44.330;23.802;2023-02-21T07:18:55;100054.53;;;13.61;55.77
55675;BME280;41562;44.330;23.802;2023-02-21T07:21:24;100046.25;;;14.03;51.29
55675;BME280;41562;44.330;23.802;2023-02-21T07:23:53;100053.47;;;14.71;49.74
55675;BME280;41562;44.330;23.802;2023-02-21T07:26:20;100044.41;;;14.67;49.47
55675;BME280;41562;44.330;23.802;2023-02-21T07:28:47;100040.09;;;15.16;50.83
55675;BME280;41562;44.330;23.802;2023-02-21T07:31:15;100049.63;;;14.86;48.89
55675;BME280;41562;44.330;23.802;2023-02-21T07:33:45;100043.66;;;14.39;49.69
55675;BME280;41562;44.330;23.802;2023-02-21T07:36:13;100051.50;;;14.36;49.90
55675;BME280;41562;44.330;23.802;2023-02-21T07:38:40;100041.50;;;14.77;52.36
55675;BME280;41562;44.330;23.802;2023-02-21T07:41:09;100027.91;;;13.92;51.67
55675;BME280;41562;44.330;23.802;2023-02-21T07:43:36;100031.13;;;13.48;52.99
55675;BME280;41562;44.330;23.802;2023-02-21T07:46:15;100025.50;;;13.63;53.03
55675;BME280;41562;44.330;23.802;2023-02-21T07:48:43;100032.78;;;13.90;53.82
55675;BME280;41562;44.330;23.802;2023-02-21T07:51:18;100018.31;;;13.72;52.88
55675;BME280;41562;44.330;23.802;2023-02-21T07:53:51;100015.94;;;13.57;54.27
55675;BME280;41562;44.330;23.802;2023-02-21T07:56:18;100017.69;;;13.48;54.36
55675;BME280;41562;44.330;23.802;2023-02-21T07:58:45;100014.75;;;13.63;55.78
55675;BME280;41562;44.330;23.802;2023-02-21T08:01:12;100019.13;;;13.59;54.42
55675;BME280;41562;44.330;23.802;2023-02-21T08:03:40;100004.41;;;13.70;53.93
55675;BME280;41562;44.330;23.802;2023-02-21T08:06:11;100016.97;;;14.16;52.60
55675;BME280;41562;44.330;23.802;2023-02-21T08:08:45;100006.97;;;14.30;53.35
55675;BME280;41562;44.330;23.802;2023-02-21T08:11:12;100008.91;;;13.88;53.01
55675;BME280;41562;44.330;23.802;2023-02-21T08:13:40;100003.03;;;14.14;52.09
55675;BME280;41562;44.330;23.802;2023-02-21T08:16:07;99986.88;;;14.41;51.53
55675;BME280;41562;44.330;23.802;2023-02-21T08:18:40;100022.59;;;14.55;59.08
55675;BME280;41562;44.330;23.802;2023-02-21T08:21:09;100014.91;;;14.62;51.45
55675;BME280;41562;44.330;23.802;2023-02-21T08:23:36;100009.59;;;14.35;51.73
55675;BME280;41562;44.330;23.802;2023-02-21T08:26:04;100027.50;;;14.26;51.95
55675;BME280;41562;44.330;23.802;2023-02-21T08:28:36;100018.66;;;14.75;61.31
55675;BME280;41562;44.330;23.802;2023-02-21T08:31:03;100026.84;;;14.83;51.36
55675;BME280;41562;44.330;23.802;2023-02-21T08:33:45;100014.94;;;14.48;51.53
55675;BME280;41562;44.330;23.802;2023-02-21T08:36:20;100015.97;;;14.12;52.31
55675;BME280;41562;44.330;23.802;2023-02-21T08:38:47;100014.56;;;14.28;53.68
55675;BME280;41562;44.330;23.802;2023-02-21T08:41:15;100014.19;;;14.21;52.60
55675;BME280;41562;44.330;23.802;2023-02-21T08:43:43;100009.00;;;14.38;51.90
55675;BME280;41562;44.330;23.802;2023-02-21T08:46:14;100016.34;;;14.19;52.30
55675;BME280;41562;44.330;23.802;2023-02-21T08:48:51;100010.13;;;14.73;55.81
55675;BME280;41562;44.330;23.802;2023-02-21T08:51:23;100008.13;;;14.78;51.18
55675;BME280;41562;44.330;23.802;2023-02-21T08:53:51;100009.47;;;15.34;49.72
55675;BME280;41562;44.330;23.802;2023-02-21T08:56:19;100008.94;;;15.23;49.90
55675;BME280;41562;44.330;23.802;2023-02-21T08:58:47;100011.88;;;15.66;56.82
55675;BME280;41562;44.330;23.802;2023-02-21T09:01:15;100026.03;;;15.72;49.80
55675;BME280;41562;44.330;23.802;2023-02-21T09:03:44;100002.06;;;15.71;49.36
55675;BME280;41562;44.330;23.802;2023-02-21T09:06:11;100015.06;;;15.68;48.59
55675;BME280;41562;44.330;23.802;2023-02-21T09:08:39;100013.97;;;16.09;49.18
55675;BME280;41562;44.330;23.802;2023-02-21T09:11:06;100018.13;;;16.32;48.13
55675;BME280;41562;44.330;23.802;2023-02-21T09:13:34;100007.31;;;16.15;48.32
55675;BME280;41562;44.330;23.802;2023-02-21T09:16:02;100015.09;;;16.17;47.62
55675;BME280;41562;44.330;23.802;2023-02-21T09:18:33;100006.69;;;16.27;52.06
55675;BME280;41562;44.330;23.802;2023-02-21T09:21:06;100021.31;;;16.34;47.56
55675;BME280;41562;44.330;23.802;2023-02-21T09:23:34;100022.59;;;16.28;46.94
55675;BME280;41562;44.330;23.802;2023-02-21T09:26:01;100008.63;;;16.35;47.03
55675;BME280;41562;44.330;23.802;2023-02-21T09:28:28;100008.50;;;16.57;49.56
55675;BME280;41562;44.330;23.802;2023-02-21T09:30:56;100008.56;;;17.00;46.18
55675;BME280;41562;44.330;23.802;2023-02-21T09:33:24;100020.63;;;16.85;44.96
55675;BME280;41562;44.330;23.802;2023-02-21T09:35:52;100025.16;;;16.50;45.60
55675;BME280;41562;44.330;23.802;2023-02-21T09:38:23;100006.44;;;16.54;50.42
55675;BME280;41562;44.330;23.802;2023-02-21T09:40:55;100003.94;;;16.75;45.77
55675;BME280;41562;44.330;23.802;2023-02-21T09:43:33;100005.69;;;16.71;45.67
55675;BME280;41562;44.330;23.802;2023-02-21T09:46:13;100005.84;;;16.92;45.30
55675;BME280;41562;44.330;23.802;2023-02-21T09:48:43;100002.00;;;17.18;44.23
55675;BME280;41562;44.330;23.802;2023-02-21T09:51:12;100007.88;;;17.20;44.35
55675;BME280;41562;44.330;23.802;2023-02-21T09:53:42;100002.91;;;17.40;42.81
55675;BME280;41562;44.330;23.802;2023-02-21T09:56:35;99995.75;;;17.44;42.81
55675;BME280;41562;44.330;23.802;2023-02-21T09:59:16;99992.78;;;17.83;42.65
55675;BME280;41562;44.330;23.802;2023-02-21T10:04:20;99995.47;;;17.28;43.29
55675;BME280;41562;44.330;23.802;2023-02-21T10:06:56;99980.97;;;17.33;42.70
55675;BME280;41562;44.330;23.802;2023-02-21T10:12:09;99987.53;;;17.87;41.57
55675;BME280;41562;44.330;23.802;2023-02-21T10:20:26;99975.44;;;17.84;41.66
55675;BME280;41562;44.330;23.802;2023-02-21T10:22:57;99967.78;;;17.86;40.90
55675;BME280;41562;44.330;23.802;2023-02-21T10:25:30;99968.63;;;17.78;41.67
55675;BME280;41562;44.330;23.802;2023-02-21T10:27:59;99960.16;;;17.88;42.42
55675;BME280;41562;44.330;23.802;2023-02-21T10:30:35;99959.81;;;18.40;46.34
55675;BME280;41562;44.330;23.802;2023-02-21T10:33:10;99965.06;;;17.95;41.52
55675;BME280;41562;44.330;23.802;2023-02-21T10:35:38;99941.66;;;17.90;41.68
55675;BME280;41562;44.330;23.802;2023-02-21T10:38:10;99955.19;;;18.20;41.15
55675;BME280;41562;44.330;23.802;2023-02-21T10:40:49;99942.81;;;18.60;40.37
55675;BME280;41562;44.330;23.802;2023-02-21T10:46:27;99929.69;;;18.00;40.85
55675;BME280;41562;44.330;23.802;2023-02-21T10:51:45;99925.16;;;18.54;39.80
55675;BME280;41562;44.330;23.802;2023-02-21T10:54:21;99923.00;;;18.27;39.91
55675;BME280;41562;44.330;23.802;2023-02-21T10:56:50;99919.09;;;18.57;39.82
55675;BME280;41562;44.330;23.802;2023-02-21T10:59:27;99912.94;;;18.48;40.35
55675;BME280;41562;44.330;23.802;2023-02-21T11:01:56;99905.09;;;18.55;39.45
55675;BME280;41562;44.330;23.802;2023-02-21T11:04:33;99916.44;;;18.28;40.02
55675;BME280;41562;44.330;23.802;2023-02-21T11:07:11;99907.66;;;18.31;39.91
55675;BME280;41562;44.330;23.802;2023-02-21T11:09:44;99914.94;;;18.60;39.23
55675;BME280;41562;44.330;23.802;2023-02-21T11:17:23;99913.41;;;18.50;39.33
55675;BME280;41562;44.330;23.802;2023-02-21T11:19:56;99911.50;;;18.71;41.51
55675;BME280;41562;44.330;23.802;2023-02-21T11:22:35;99893.78;;;18.53;39.06
55675;BME280;41562;44.330;23.802;2023-02-21T11:25:21;99907.94;;;18.38;39.37
55675;BME280;41562;44.330;23.802;2023-02-21T11:33:27;99897.44;;;18.57;39.82
55675;BME280;41562;44.330;23.802;2023-02-21T11:36:18;99912.38;;;18.63;40.10
55675;BME280;41562;44.330;23.802;2023-02-21T11:41:36;99900.06;;;18.99;40.00
55675;BME280;41562;44.330;23.802;2023-02-21T11:47:01;99880.66;;;18.97;38.91
55675;BME280;41562;44.330;23.802;2023-02-21T11:53:12;99871.13;;;18.91;39.06
55675;BME280;41562;44.330;23.802;2023-02-21T11:55:41;99862.44;;;18.97;38.98
55675;BME280;41562;44.330;23.802;2023-02-21T11:58:33;99861.63;;;18.84;40.15
55675;BME280;41562;44.330;23.802;2023-02-21T12:01:06;99844.03;;;18.91;37.83
55675;BME280;41562;44.330;23.802;2023-02-21T12:03:58;99859.38;;;18.86;37.60
55675;BME280;41562;44.330;23.802;2023-02-21T12:09:29;99824.44;;;19.18;40.58
55675;BME280;41562;44.330;23.802;2023-02-21T12:15:11;99841.16;;;19.20;37.23
55675;BME280;41562;44.330;23.802;2023-02-21T12:21:21;99835.00;;;18.86;37.20
55675;BME280;41562;44.330;23.802;2023-02-21T12:26:43;99825.59;;;18.72;37.49
55675;BME280;41562;44.330;23.802;2023-02-21T12:30:03;99831.66;;;19.26;43.24
55675;BME280;41562;44.330;23.802;2023-02-21T12:47:00;99829.34;;;18.92;38.09
55675;BME280;41562;44.330;23.802;2023-02-21T12:49:51;99828.00;;;18.98;40.01
55675;BME280;41562;44.330;23.802;2023-02-21T12:52:46;99816.44;;;18.64;38.08
55675;BME280;41562;44.330;23.802;2023-02-21T12:55:26;99817.56;;;18.63;37.84
55675;BME280;41562;44.330;23.802;2023-02-21T13:00:56;99808.69;;;18.75;38.44
55675;BME280;41562;44.330;23.802;2023-02-21T13:09:14;99804.81;;;18.64;37.47
55675;BME280;41562;44.330;23.802;2023-02-21T13:12:02;99792.03;;;18.52;37.88
55675;BME280;41562;44.330;23.802;2023-02-21T13:14:36;99803.41;;;18.45;37.94
55675;BME280;41562;44.330;23.802;2023-02-21T13:17:09;99807.34;;;18.48;37.40
55675;BME280;41562;44.330;23.802;2023-02-21T13:25:27;99807.53;;;18.64;37.61
55675;BME280;41562;44.330;23.802;2023-02-21T13:32:59;99810.63;;;18.54;37.50
55675;BME280;41562;44.330;23.802;2023-02-21T13:35:33;99799.72;;;18.62;37.77
55675;BME280;41562;44.330;23.802;2023-02-21T13:38:04;99806.06;;;18.66;38.18
55675;BME280;41562;44.330;23.802;2023-02-21T13:40:39;99795.34;;;18.70;38.16
55675;BME280;41562;44.330;23.802;2023-02-21T13:43:19;99803.00;;;18.35;37.37
55675;BME280;41562;44.330;23.802;2023-02-21T13:45:49;99787.66;;;18.27;37.86
55675;BME280;41562;44.330;23.802;2023-02-21T13:48:20;99779.06;;;18.25;37.85
55675;BME280;41562;44.330;23.802;2023-02-21T13:50:55;99782.59;;;18.58;38.39
55675;BME280;41562;44.330;23.802;2023-02-21T13:53:25;99779.44;;;18.35;38.14
55675;BME280;41562;44.330;23.802;2023-02-21T14:01:22;99771.47;;;18.51;38.15
55675;BME280;41562;44.330;23.802;2023-02-21T14:03:55;99775.50;;;18.33;37.90
55675;BME280;41562;44.330;23.802;2023-02-21T14:06:35;99772.22;;;18.06;38.39
55675;BME280;41562;44.330;23.802;2023-02-21T14:09:14;99772.53;;;18.26;42.60
55675;BME280;41562;44.330;23.802;2023-02-21T14:11:47;99766.22;;;18.34;38.68
55675;BME280;41562;44.330;23.802;2023-02-21T14:17:01;99760.66;;;18.18;41.94
55675;BME280;41562;44.330;23.802;2023-02-21T14:22:08;99756.63;;;18.24;38.43
55675;BME280;41562;44.330;23.802;2023-02-21T14:24:41;99748.19;;;18.05;38.36
55675;BME280;41562;44.330;23.802;2023-02-21T14:30:12;99752.88;;;17.96;41.80
55675;BME280;41562;44.330;23.802;2023-02-21T14:32:49;99761.41;;;17.65;39.44
55675;BME280;41562;44.330;23.802;2023-02-21T14:35:28;99746.91;;;17.40;40.09
55675;BME280;41562;44.330;23.802;2023-02-21T14:38:04;99742.03;;;17.34;40.37
55675;BME280;41562;44.330;23.802;2023-02-21T14:43:09;99745.63;;;17.17;40.99
55675;BME280;41562;44.330;23.802;2023-02-21T15:07:33;99761.13;;;16.61;42.48
55675;BME280;41562;44.330;23.802;2023-02-21T15:10:16;99778.38;;;16.77;46.68
55675;BME280;41562;44.330;23.802;2023-02-21T15:12:59;99775.88;;;16.64;42.91
55675;BME280;41562;44.330;23.802;2023-02-21T15:15:40;99783.81;;;16.69;42.34
55675;BME280;41562;44.330;23.802;2023-02-21T15:18:12;99796.53;;;16.60;42.78
55675;BME280;41562;44.330;23.802;2023-02-21T15:21:22;99804.13;;;16.75;44.80
55675;BME280;41562;44.330;23.802;2023-02-21T15:24:00;99799.22;;;16.51;43.16
55675;BME280;41562;44.330;23.802;2023-02-21T15:26:31;99809.88;;;16.65;42.77
55675;BME280;41562;44.330;23.802;2023-02-21T15:29:13;99809.38;;;16.54;43.33
55675;BME280;41562;44.330;23.802;2023-02-21T15:31:49;99812.75;;;16.60;42.90
55675;BME280;41562;44.330;23.802;2023-02-21T15:34:35;99816.06;;;16.48;43.78
55675;BME280;41562;44.330;23.802;2023-02-21T15:37:12;99827.19;;;16.38;44.19
55675;BME280;41562;44.330;23.802;2023-02-21T15:39:50;99828.63;;;16.35;46.92
55675;BME280;41562;44.330;23.802;2023-02-21T15:42:22;99827.38;;;16.24;45.23